Time;durP1;ratioP1;P1;durP2;ratioP2;P2;SDS_P1;SDS_P2;PMS_P1;PMS_P2;Temp;Humidity;BMP_temperature;BMP_pressure;BME280_temperature;BME280_humidity;BME280_pressure;Samples;Min_cycle;Max_cycle;Signal;HPM_P1;HPM_P2
2022/09/28 00:01:09;;;;;;;5.60;3.45;;;;;;;9.88;100.00;99472.72;5076036;28;20048;-54
2022/09/28 00:03:36;;;;;;;5.18;3.42;;;;;;;9.88;100.00;99464.56;5086337;28;20061;-56
2022/09/28 00:06:11;;;;;;;7.20;3.58;;;;;;;9.88;100.00;99470.81;5082509;28;20075;-57
2022/09/28 00:08:39;;;;;;;11.65;4.07;;;;;;;9.89;100.00;99468.91;5075276;28;20040;-57
2022/09/28 00:11:11;;;;;;;7.80;3.90;;;;;;;9.87;100.00;99454.81;5074874;28;20495;-57
2022/09/28 00:13:40;;;;;;;7.40;3.90;;;;;;;9.85;100.00;99462.44;5085111;28;20096;-55
2022/09/28 00:16:19;;;;;;;6.03;3.90;;;;;;;9.88;100.00;99461.84;5089568;28;20136;-57
2022/09/28 00:18:49;;;;;;;7.93;3.92;;;;;;;9.87;100.00;99460.25;5077195;28;20051;-56
2022/09/28 00:21:29;;;;;;;6.03;3.95;;;;;;;9.86;100.00;99454.00;5075435;28;20044;-56
2022/09/28 00:24:11;;;;;;;8.63;4.45;;;;;;;9.86;100.00;99458.63;5072951;28;20048;-58
2022/09/28 00:26:50;;;;;;;7.28;4.50;;;;;;;9.86;100.00;99453.16;5074427;28;20040;-56
2022/09/28 00:29:32;;;;;;;8.95;4.30;;;;;;;9.86;100.00;99448.56;5072888;28;20442;-55
2022/09/28 00:32:03;;;;;;;7.00;4.60;;;;;;;9.84;100.00;99448.03;5054556;28;20036;-54
2022/09/28 00:34:44;;;;;;;7.00;4.50;;;;;;;9.79;100.00;99448.13;5072879;28;20032;-51
2022/09/28 00:37:13;;;;;;;8.95;4.97;;;;;;;9.77;100.00;99445.69;5073327;28;20040;-55
2022/09/28 00:39:42;;;;;;;8.68;5.03;;;;;;;9.79;100.00;99448.94;5057698;28;20040;-57
2022/09/28 00:42:21;;;;;;;8.88;5.00;;;;;;;9.81;100.00;99445.91;5066545;28;20045;-57
2022/09/28 00:44:50;;;;;;;9.38;5.40;;;;;;;9.79;100.00;99448.94;5046877;28;20032;-56
2022/09/28 00:47:30;;;;;;;8.32;5.35;;;;;;;9.77;100.00;99442.97;5065966;28;20065;-55
2022/09/28 00:50:12;;;;;;;8.80;4.72;;;;;;;9.76;100.00;99438.63;5062932;28;20059;-54
2022/09/28 00:52:52;;;;;;;8.80;5.20;;;;;;;9.77;100.00;99439.47;5064501;28;20047;-54
2022/09/28 00:55:30;;;;;;;8.68;5.38;;;;;;;9.77;100.00;99437.53;5072064;28;20081;-57
2022/09/28 00:58:01;;;;;;;9.05;5.20;;;;;;;9.79;100.00;99437.25;5048952;28;20041;-54
2022/09/28 01:00:28;;;;;;;9.52;5.22;;;;;;;9.79;100.00;99439.97;5071569;28;20128;-56
2022/09/28 01:02:57;;;;;;;9.43;5.45;;;;;;;9.78;100.00;99439.13;5067918;28;20041;-55
2022/09/28 01:05:26;;;;;;;8.52;4.85;;;;;;;9.78;100.00;99441.06;5058536;28;20040;-54
2022/09/28 01:07:56;;;;;;;8.98;5.38;;;;;;;9.76;100.00;99435.91;5052899;28;20040;-53
2022/09/28 01:10:24;;;;;;;7.40;4.85;;;;;;;9.73;100.00;99433.78;5056104;28;20044;-53
2022/09/28 01:12:51;;;;;;;8.75;4.85;;;;;;;9.73;100.00;99438.41;5069519;28;20429;-55
2022/09/28 01:15:20;;;;;;;7.63;4.93;;;;;;;9.73;100.00;99439.22;5041244;28;20053;-57
2022/09/28 01:18:09;;;;;;;8.50;4.97;;;;;;;9.74;100.00;99427.25;5067807;28;20540;-54
2022/09/28 01:20:47;;;;;;;6.75;4.93;;;;;;;9.74;100.00;99427.25;5070601;28;20040;-54
2022/09/28 01:23:44;;;;;;;8.55;5.00;;;;;;;9.76;100.00;99427.75;5071919;28;20044;-54
2022/09/28 01:26:52;;;;;;;8.38;4.75;;;;;;;9.76;100.00;99426.94;5071680;28;20052;-55
2022/09/28 01:29:35;;;;;;;8.63;4.97;;;;;;;9.74;100.00;99421.00;5070870;28;20498;-56
2022/09/28 01:32:13;;;;;;;8.45;4.95;;;;;;;9.73;100.00;99431.06;5066393;28;20040;-55
2022/09/28 01:34:53;;;;;;;7.60;4.45;;;;;;;9.74;100.00;99423.72;5068227;28;20051;-58
2022/09/28 01:37:23;;;;;;;7.93;4.50;;;;;;;9.72;100.00;99437.63;5071891;28;20448;-54
2022/09/28 01:39:51;;;;;;;9.25;5.03;;;;;;;9.71;100.00;99436.00;5055509;28;20041;-54
2022/09/28 01:42:26;;;;;;;7.47;4.70;;;;;;;9.70;100.00;99439.03;5048623;28;20090;-53
2022/09/28 01:44:57;;;;;;;6.10;4.13;;;;;;;9.70;100.00;99439.81;5053025;28;20036;-56
2022/09/28 01:47:26;;;;;;;7.43;4.88;;;;;;;9.68;100.00;99444.75;5060621;28;20067;-54
2022/09/28 01:50:04;;;;;;;8.93;4.82;;;;;;;9.64;100.00;99441.00;5024069;28;20049;-54
2022/09/28 01:52:51;;;;;;;9.00;4.57;;;;;;;9.63;100.00;99439.41;5055726;28;20522;-55
2022/09/28 01:55:34;;;;;;;6.13;4.10;;;;;;;9.64;100.00;99435.56;5055505;28;20044;-55
2022/09/28 01:58:17;;;;;;;7.20;4.40;;;;;;;9.64;100.00;99434.75;5067107;28;20041;-53
2022/09/28 02:00:48;;;;;;;7.97;4.43;;;;;;;9.63;100.00;99433.97;5051857;28;20044;-56
2022/09/28 02:03:30;;;;;;;9.45;4.20;;;;;;;9.62;100.00;99426.91;5041432;28;20521;-53
2022/09/28 02:06:26;;;;;;;8.70;4.40;;;;;;;9.58;100.00;99434.03;5052128;28;20053;-57
2022/09/28 02:09:00;;;;;;;6.38;4.00;;;;;;;9.56;100.00;99423.44;5054727;28;20040;-56
2022/09/28 02:11:44;;;;;;;9.07;3.80;;;;;;;9.56;100.00;99430.81;5055894;28;20048;-54
2022/09/28 02:14:15;;;;;;;7.20;3.95;;;;;;;9.58;100.00;99425.88;5035418;28;20044;-53
2022/09/28 02:16:53;;;;;;;8.23;4.35;;;;;;;9.58;100.00;99428.59;5069328;28;20225;-57
2022/09/28 02:19:27;;;;;;;7.25;4.00;;;;;;;9.60;100.00;99429.13;5064438;28;20037;-57
2022/09/28 02:22:22;;;;;;;6.10;3.53;;;;;;;9.61;100.00;99430.72;5051912;28;20041;-58
2022/09/28 02:25:13;;;;;;;10.07;4.03;;;;;;;9.61;100.00;99428.00;5067977;28;20402;-56
2022/09/28 02:28:01;;;;;;;7.90;4.10;;;;;;;9.62;100.00;99432.34;5071536;28;20057;-56
2022/09/28 02:30:30;;;;;;;7.95;4.03;;;;;;;9.63;100.00;99439.41;5063153;28;20044;-55
2022/09/28 02:33:08;;;;;;;6.38;3.95;;;;;;;9.64;100.00;99434.75;5055095;28;20056;-52
2022/09/28 02:35:37;;;;;;;8.07;3.97;;;;;;;9.62;100.00;99443.22;5052047;28;20445;-54
2022/09/28 02:38:05;;;;;;;9.00;4.30;;;;;;;9.61;100.00;99436.16;5059049;28;20048;-54
2022/09/28 02:40:34;;;;;;;8.23;4.68;;;;;;;9.61;100.00;99441.59;5072238;28;20041;-56
2022/09/28 02:43:15;;;;;;;7.03;4.30;;;;;;;9.62;100.00;99437.78;5031514;28;20406;-56
2022/09/28 02:46:00;;;;;;;12.10;5.32;;;;;;;9.61;100.00;99436.16;5072694;28;20049;-54
2022/09/28 02:49:21;;;;;;;8.95;4.60;;;;;;;9.59;100.00;99428.28;5040288;28;20043;-55
2022/09/28 02:52:06;;;;;;;8.93;5.20;;;;;;;9.59;100.00;99433.72;5070918;28;20047;-55
2022/09/28 02:54:59;;;;;;;8.80;4.78;;;;;;;9.59;100.00;99428.28;5070931;28;20648;-54
2022/09/28 02:57:34;;;;;;;7.97;4.53;;;;;;;9.60;100.00;99431.84;5072376;28;20055;-54
2022/09/28 03:00:09;;;;;;;9.18;5.60;;;;;;;9.56;100.00;99426.16;5067066;28;20060;-57
2022/09/28 03:03:02;;;;;;;10.40;5.03;;;;;;;9.56;100.00;99437.03;5050081;28;20045;-55
2022/09/28 03:05:59;;;;;;;9.95;4.95;;;;;;;9.55;100.00;99435.44;5058385;28;20044;-56
2022/09/28 03:08:47;;;;;;;7.97;4.50;;;;;;;9.55;100.00;99432.72;5068932;28;20043;-54
2022/09/28 03:11:21;;;;;;;;;;;;;;;9.58;100.00;99434.03;5055609;28;20455;-53
2022/09/28 03:13:50;;;;;;;7.47;4.60;;;;;;;9.55;100.00;99426.47;5051870;28;19921;-58
2022/09/28 03:16:21;;;;;;;9.10;5.28;;;;;;;9.54;100.00;99428.38;5038504;28;20048;-56
2022/09/28 03:18:49;;;;;;;8.23;4.28;;;;;;;9.51;100.00;99431.69;5070527;28;20044;-57
2022/09/28 03:21:17;;;;;;;8.52;4.30;;;;;;;9.52;100.00;99427.03;5065447;28;20106;-56
2022/09/28 03:23:46;;;;;;;8.70;4.70;;;;;;;9.51;100.00;99433.59;5074930;28;20036;-52
2022/09/28 03:26:16;;;;;;;10.25;4.55;;;;;;;9.50;100.00;99423.81;5074521;28;20045;-56
2022/09/28 03:28:44;;;;;;;8.35;4.40;;;;;;;9.49;100.00;99438.53;5074228;28;20040;-55
2022/09/28 03:31:17;;;;;;;8.02;4.40;;;;;;;9.50;100.00;99440.13;5070286;28;20037;-54
2022/09/28 03:33:45;;;;;;;8.15;4.70;;;;;;;9.51;100.00;99433.59;5072490;28;20525;-56
2022/09/28 03:36:14;;;;;;;8.13;4.22;;;;;;;9.52;100.00;99437.91;5065695;28;20048;-52
2022/09/28 03:38:41;;;;;;;7.45;4.43;;;;;;;9.53;100.00;99439.56;5055522;28;20049;-57
2022/09/28 03:41:10;;;;;;;7.72;3.92;;;;;;;9.51;100.00;99439.03;5072872;28;20055;-56
2022/09/28 03:43:41;;;;;;;8.50;4.57;;;;;;;9.48;100.00;99440.44;5074117;28;20498;-56
2022/09/28 03:46:09;;;;;;;6.28;4.10;;;;;;;9.47;100.00;99435.28;5064055;28;20069;-54
2022/09/28 03:48:42;;;;;;;8.85;4.05;;;;;;;9.45;100.00;99437.47;5062475;28;20037;-57
2022/09/28 03:51:11;;;;;;;6.68;3.95;;;;;;;9.43;100.00;99431.53;5061936;28;20037;-58
2022/09/28 03:53:40;;;;;;;8.18;4.20;;;;;;;9.41;100.00;99439.19;5057894;28;20051;-55
2022/09/28 03:56:11;;;;;;;6.43;4.05;;;;;;;9.44;100.00;99433.16;5073271;28;20041;-55
2022/09/28 03:58:39;;;;;;;6.85;3.95;;;;;;;9.46;100.00;99444.56;5073527;28;20040;-55
2022/09/28 04:01:16;;;;;;;5.78;3.60;;;;;;;9.42;100.00;99438.09;5057795;28;20045;-52
2022/09/28 04:03:47;;;;;;;7.35;3.63;;;;;;;9.42;100.00;99447.03;5072160;28;20403;-55
2022/09/28 04:06:14;;;;;;;7.85;3.42;;;;;;;9.42;100.00;99443.53;5055342;28;20409;-54
2022/09/28 04:08:42;;;;;;;5.05;3.25;;;;;;;9.42;100.00;99443.53;5038177;28;20525;-57
2022/09/28 04:11:10;;;;;;;7.32;3.53;;;;;;;9.42;100.00;99443.53;5074136;28;20044;-57
2022/09/28 04:13:38;;;;;;;6.88;3.40;;;;;;;9.39;100.00;99443.00;5051451;28;20033;-56
2022/09/28 04:16:10;;;;;;;7.30;3.78;;;;;;;9.39;100.00;99439.47;5056962;28;20057;-58
2022/09/28 04:18:39;;;;;;;6.05;3.17;;;;;;;9.34;100.00;99432.22;5062973;28;20052;-58
2022/09/28 04:21:33;;;;;;;9.48;3.13;;;;;;;9.31;100.00;99432.81;5080841;28;20086;-58
2022/09/28 04:24:08;;;;;;;5.60;2.95;;;;;;;9.33;100.00;99429.78;5075257;28;20043;-59
2022/09/28 04:26:36;;;;;;;6.13;3.10;;;;;;;9.33;100.00;99429.78;5078581;28;20116;-58
2022/09/28 04:29:15;;;;;;;4.60;2.95;;;;;;;9.30;100.00;99427.66;5056792;28;20044;-59
2022/09/28 04:31:51;;;;;;;5.28;2.80;;;;;;;9.26;100.00;99432.88;5072378;28;20040;-57
2022/09/28 04:34:22;;;;;;;5.50;3.00;;;;;;;9.27;100.00;99429.03;5057740;28;20047;-58
2022/09/28 04:36:50;;;;;;;5.53;2.88;;;;;;;9.23;100.00;99429.91;5076559;28;20036;-58
2022/09/28 04:39:18;;;;;;;3.38;2.60;;;;;;;9.24;100.00;99431.56;5072023;28;20052;-55
2022/09/28 04:41:49;;;;;;;5.18;2.72;;;;;;;9.28;100.00;99436.09;5070473;28;20401;-56
2022/09/28 04:44:17;;;;;;;3.97;2.25;;;;;;;9.30;100.00;99430.38;5059452;28;20127;-59
2022/09/28 04:46:46;;;;;;;5.15;2.88;;;;;;;9.30;100.00;99431.16;5077742;28;20048;-59
2022/09/28 04:49:40;;;;;;;4.85;2.60;;;;;;;9.31;100.00;99432.81;5061324;28;20097;-60
2022/09/28 04:52:10;;;;;;;4.75;2.50;;;;;;;9.31;100.00;99432.81;5071606;28;20040;-59
2022/09/28 04:54:46;;;;;;;4.80;2.60;;;;;;;9.28;100.00;99425.22;5060412;28;20040;-58
2022/09/28 04:57:14;;;;;;;6.57;2.25;;;;;;;9.29;100.00;99443.16;5066878;28;20502;-60
2022/09/28 04:59:42;;;;;;;4.07;2.35;;;;;;;9.29;100.00;99443.16;5035939;28;20040;-57
2022/09/28 05:02:12;;;;;;;7.65;2.63;;;;;;;9.29;100.00;99445.06;5064791;28;20051;-59
2022/09/28 05:05:03;;;;;;;4.82;2.20;;;;;;;9.25;100.00;99455.69;5065956;28;20036;-59
2022/09/28 05:07:46;;;;;;;7.18;2.50;;;;;;;9.23;100.00;99460.63;5073444;28;20055;-59
2022/09/28 05:10:14;;;;;;;5.13;2.05;;;;;;;9.21;100.00;99462.81;5071984;28;20041;-58
2022/09/28 05:12:42;;;;;;;5.13;2.53;;;;;;;9.20;100.00;99442.19;5066397;28;20402;-59
2022/09/28 05:15:10;;;;;;;5.32;2.38;;;;;;;9.18;100.00;99456.06;5043740;28;20414;-59
2022/09/28 05:17:38;;;;;;;4.53;2.10;;;;;;;9.18;100.00;99449.81;5064449;28;20395;-60
2022/09/28 05:20:10;;;;;;;5.22;2.00;;;;;;;9.17;100.00;99459.88;5063197;28;20048;-55
2022/09/28 05:22:38;;;;;;;5.40;1.85;;;;;;;9.16;100.00;99452.00;5066973;28;20399;-58
2022/09/28 05:25:08;;;;;;;5.65;2.67;;;;;;;9.17;100.00;99450.94;5070559;28;20048;-60
2022/09/28 05:27:47;;;;;;;7.90;2.95;;;;;;;9.13;100.00;99452.59;5072293;28;20048;-60
2022/09/28 05:30:36;;;;;;;6.95;2.67;;;;;;;9.13;100.00;99463.47;5058629;28;20037;-56
2022/09/28 05:33:28;;;;;;;4.50;2.13;;;;;;;9.14;100.00;99456.97;5069937;28;20418;-58
2022/09/28 05:36:10;;;;;;;5.40;2.90;;;;;;;9.15;100.00;99455.84;5064927;28;20044;-59
2022/09/28 05:38:38;;;;;;;4.55;2.80;;;;;;;9.14;100.00;99455.03;5032260;28;20048;-56
2022/09/28 05:41:06;;;;;;;3.90;2.22;;;;;;;9.14;100.00;99448.81;5071081;28;20044;-60
2022/09/28 05:43:34;;;;;;;5.88;2.40;;;;;;;9.12;100.00;99457.25;5066629;28;20037;-59
2022/09/28 05:46:04;;;;;;;7.07;3.35;;;;;;;9.12;100.00;99453.72;5072281;28;20048;-56
2022/09/28 05:48:35;;;;;;;7.10;3.33;;;;;;;9.11;100.00;99454.81;5071803;28;20040;-60
2022/09/28 05:51:03;;;;;;;6.60;2.42;;;;;;;9.13;100.00;99464.28;5071857;28;20085;-57
2022/09/28 05:53:31;;;;;;;4.53;1.90;;;;;;;9.12;100.00;99467.31;5063284;28;20033;-57
2022/09/28 05:55:59;;;;;;;5.25;1.90;;;;;;;9.13;100.00;99463.47;5069211;28;20505;-60
2022/09/28 05:58:29;;;;;;;5.10;2.00;;;;;;;9.13;100.00;99464.28;5055007;28;20037;-59
2022/09/28 06:00:58;;;;;;;4.63;1.80;;;;;;;9.14;100.00;99465.13;5064622;28;20079;-59
2022/09/28 06:03:26;;;;;;;6.32;2.76;;;;;;;9.13;100.00;99469.72;4370339;28;10020724;-59
2022/09/28 06:05:54;;;;;;;7.68;2.92;;;;;;;9.12;100.00;99476.25;5042620;28;20032;-55
2022/09/28 06:08:21;;;;;;;5.80;2.05;;;;;;;9.14;100.00;99470.53;5067760;28;20162;-59
2022/09/28 06:11:01;;;;;;;3.95;2.00;;;;;;;9.15;100.00;99478.38;5068559;28;20044;-59
2022/09/28 06:13:29;;;;;;;10.07;3.38;;;;;;;9.16;100.00;99473.75;5063384;28;20048;-60
2022/09/28 06:15:56;;;;;;;5.25;2.78;;;;;;;9.17;100.00;99476.19;5085692;28;20048;-59
2022/09/28 06:18:26;;;;;;;6.03;2.70;;;;;;;9.18;100.00;99479.72;5066827;28;20410;-53
2022/09/28 06:21:22;;;;;;;5.80;2.70;;;;;;;9.18;100.00;99490.59;5062194;28;20126;-53
2022/09/28 06:23:50;;;;;;;6.70;2.50;;;;;;;9.17;100.00;99492.50;5067752;28;20395;-52
2022/09/28 06:26:18;;;;;;;5.15;2.13;;;;;;;9.21;100.00;99489.19;5065980;28;20109;-52
2022/09/28 06:28:46;;;;;;;5.40;1.67;;;;;;;9.22;100.00;99483.47;5046741;28;20403;-55
2022/09/28 06:31:14;;;;;;;6.10;2.20;;;;;;;9.19;100.00;99489.50;5063109;28;20045;-55
2022/09/28 06:33:48;;;;;;;5.88;2.20;;;;;;;9.14;100.00;99490.38;5063547;28;20512;-57
2022/09/28 06:36:18;;;;;;;6.18;2.30;;;;;;;9.12;100.00;99497.19;5062938;28;20461;-52
2022/09/28 06:38:46;;;;;;;6.15;2.30;;;;;;;9.08;100.00;99494.25;5051757;28;20048;-53
2022/09/28 06:41:14;;;;;;;3.45;1.75;;;;;;;9.12;100.00;99497.19;5048235;28;20522;-52
2022/09/28 06:43:45;;;;;;;5.03;1.73;;;;;;;9.13;100.00;99501.53;5054407;28;20414;-56
2022/09/28 06:46:13;;;;;;;5.68;2.20;;;;;;;9.14;100.00;99501.25;5060543;28;20110;-53
2022/09/28 06:48:42;;;;;;;5.47;1.90;;;;;;;9.21;100.00;99502.78;5068096;28;20045;-52
2022/09/28 06:51:14;;;;;;;5.70;2.13;;;;;;;9.24;100.00;99508.47;5068574;28;20037;-52
2022/09/28 06:54:02;;;;;;;4.45;2.10;;;;;;;9.27;100.00;99507.88;5063523;28;20041;-54
2022/09/28 06:56:40;;;;;;;7.10;1.98;;;;;;;9.26;100.00;99513.56;5038253;28;20052;-54
2022/09/28 06:59:08;;;;;;;3.95;1.65;;;;;;;9.25;100.00;99504.63;5062157;28;20038;-52
2022/09/28 07:01:37;;;;;;;5.20;1.67;;;;;;;9.22;100.00;99505.22;5069039;28;20045;-54
2022/09/28 07:04:17;;;;;;;4.57;1.98;;;;;;;9.23;100.00;99506.81;5057860;28;20121;-53
2022/09/28 07:07:03;;;;;;;4.22;1.77;;;;;;;9.23;100.00;99506.81;5073437;28;20573;-54
2022/09/28 07:09:53;;;;;;;3.70;1.75;;;;;;;9.27;100.00;99512.50;5067396;28;20037;-55
2022/09/28 07:12:40;;;;;;;6.13;2.33;;;;;;;9.32;100.00;99517.88;5067082;28;20048;-53
2022/09/28 07:15:26;;;;;;;;;;;;;;;9.32;100.00;99524.09;5072589;28;20072;-53
2022/09/28 07:17:59;;;;;;;4.97;2.05;;;;;;;9.32;100.00;99520.59;5055484;28;20449;-54
2022/09/28 07:20:32;;;;;;;4.22;1.58;;;;;;;9.30;100.00;99523.59;5043194;28;20044;-52
2022/09/28 07:23:14;;;;;;;4.95;2.13;;;;;;;9.31;100.00;99521.69;5063544;28;20040;-53
2022/09/28 07:26:05;;;;;;;5.38;1.73;;;;;;;9.30;100.00;99528.22;5074327;28;20047;-52
2022/09/28 07:29:05;;;;;;;4.85;1.75;;;;;;;9.30;100.00;99537.16;5070002;28;20041;-55
2022/09/28 07:32:02;;;;;;;5.18;2.10;;;;;;;9.33;100.00;99542.03;5061605;28;20049;-52
2022/09/28 07:34:53;;;;;;;5.18;1.80;;;;;;;9.36;100.00;99541.47;5073905;28;20036;-53
2022/09/28 07:37:45;;;;;;;6.45;1.85;;;;;;;9.41;100.00;99539.78;5059908;28;20410;-54
2022/09/28 07:43:04;;;;;;;5.38;1.80;;;;;;;9.39;100.00;99548.22;5061928;28;20040;-57
2022/09/28 07:45:37;;;;;;;4.93;1.77;;;;;;;9.37;100.00;99551.22;5060742;28;20048;-54
2022/09/28 07:48:05;;;;;;;5.90;1.90;;;;;;;9.35;100.00;99558.84;5072860;28;20097;-50
2022/09/28 07:50:53;;;;;;;8.55;2.40;;;;;;;9.39;100.00;99553.66;5065768;28;20047;-55
2022/09/28 07:53:47;;;;;;;15.20;4.50;;;;;;;9.53;100.00;99553.75;5072392;28;20048;-54
2022/09/28 07:56:34;;;;;;;10.43;3.35;;;;;;;9.67;100.00;99549.22;5074114;28;20563;-52
2022/09/28 07:59:12;;;;;;;5.45;2.00;;;;;;;9.69;100.00;99557.06;5070650;28;20043;-51
2022/09/28 08:02:00;;;;;;;10.25;2.50;;;;;;;9.66;100.00;99566.63;5071909;28;20093;-54
2022/09/28 08:04:29;;;;;;;8.35;3.13;;;;;;;9.65;100.00;99561.50;5073367;28;20048;-52
2022/09/28 08:06:59;;;;;;;4.03;1.50;;;;;;;9.65;100.00;99559.56;5070692;28;20044;-54
2022/09/28 08:09:26;;;;;;;6.28;2.00;;;;;;;9.69;100.00;99559.78;5052031;28;20048;-55
2022/09/28 08:12:13;;;;;;;3.85;1.58;;;;;;;9.68;100.00;99556.25;5073466;28;20052;-55
2022/09/28 08:14:59;;;;;;;4.53;1.98;;;;;;;9.69;100.00;99565.22;5073574;28;20056;-54
2022/09/28 08:17:47;;;;;;;7.35;2.10;;;;;;;9.69;100.00;99574.22;5074118;28;20040;-55
2022/09/28 08:23:08;;;;;;;7.43;2.47;;;;;;;9.74;100.00;99571.41;5057744;28;20044;-53
2022/09/28 08:25:37;;;;;;;5.22;2.53;;;;;;;9.77;100.00;99572.75;5073933;28;20089;-55
2022/09/28 08:28:06;;;;;;;11.02;2.80;;;;;;;9.80;100.00;99567.50;5073517;28;20040;-52
2022/09/28 08:30:42;;;;;;;5.07;1.92;;;;;;;9.82;100.00;99569.94;5073046;28;20047;-52
2022/09/28 08:33:33;;;;;;;5.22;1.95;;;;;;;9.85;100.00;99572.06;5062446;28;20048;-57
2022/09/28 08:36:19;;;;;;;5.32;1.90;;;;;;;9.90;100.00;99573.91;5067905;28;20049;-54
2022/09/28 08:39:13;;;;;;;5.18;1.98;;;;;;;9.94;100.00;99572.22;5076247;28;20119;-55
2022/09/28 08:42:03;;;;;;;8.68;2.10;;;;;;;10.05;100.00;99586.47;5080139;28;20100;-55
2022/09/28 08:44:50;;;;;;;5.35;1.88;;;;;;;10.03;100.00;99589.50;5080944;28;20098;-53
2022/09/28 08:50:48;;;;;;;5.15;1.88;;;;;;;10.09;100.00;99590.25;5075300;28;20044;-54
2022/09/28 08:53:39;;;;;;;5.75;2.03;;;;;;;10.11;100.00;99596.19;5081366;28;20092;-55
2022/09/28 08:56:30;;;;;;;7.00;1.70;;;;;;;10.15;100.00;99592.59;5069794;28;20087;-53
2022/09/28 08:59:02;;;;;;;7.07;1.77;;;;;;;10.18;100.00;99596.63;5063831;28;20040;-54
2022/09/28 09:01:38;;;;;;;6.05;1.92;;;;;;;10.19;100.00;99609.94;5056863;28;20505;-53
2022/09/28 09:04:09;;;;;;;7.35;2.15;;;;;;;10.23;100.00;99604.72;5040451;28;20546;-52
2022/09/28 09:07:15;;;;;;;4.63;2.20;;;;;;;10.27;100.00;99604.94;5073228;28;20154;-54
2022/09/28 09:10:01;;;;;;;5.55;2.15;;;;;;;10.31;100.00;99608.72;5073432;28;20045;-53
2022/09/28 09:12:41;;;;;;;6.50;1.73;;;;;;;10.37;100.00;99610.25;5072796;28;20124;-52
2022/09/28 09:15:38;;;;;;;7.63;2.38;;;;;;;10.43;100.00;99603.63;5072473;28;20442;-54
2022/09/28 09:18:20;;;;;;;;;;;;;;;10.48;100.00;99605.44;5072923;28;20033;-55
2022/09/28 09:21:01;;;;;;;4.80;2.00;;;;;;;10.47;100.00;99604.66;5066978;28;20307;-57
2022/09/28 09:23:54;;;;;;;5.63;1.75;;;;;;;10.49;100.00;99605.16;5058663;28;20391;-56
2022/09/28 09:26:37;;;;;;;5.88;1.88;;;;;;;10.53;100.00;99608.09;5072591;28;20040;-51
2022/09/28 09:29:40;;;;;;;2.90;1.52;;;;;;;10.61;100.00;99613.69;5052992;28;20045;-54
2022/09/28 09:32:19;;;;;;;5.18;1.83;;;;;;;10.68;100.00;99615.19;5021300;28;20403;-57
2022/09/28 09:35:12;;;;;;;4.07;1.60;;;;;;;10.73;100.00;99612.41;5066956;28;20048;-55
2022/09/28 09:38:26;;;;;;;6.20;1.48;;;;;;;10.80;100.00;99621.81;5073549;28;20056;-55
2022/09/28 09:41:48;;;;;;;5.78;1.63;;;;;;;10.86;100.00;99623.31;5070628;28;20044;-55
2022/09/28 09:44:43;;;;;;;3.95;1.73;;;;;;;10.92;100.00;99626.78;5073326;28;20029;-52
2022/09/28 09:47:41;;;;;;;3.05;1.60;;;;;;;10.86;100.00;99628.78;5061476;28;20047;-54
2022/09/28 09:50:39;;;;;;;8.20;2.45;;;;;;;10.89;100.00;99632.81;5057433;28;20079;-54
2022/09/28 09:53:10;;;;;;;3.40;1.20;;;;;;;10.88;100.00;99634.72;5043330;28;20511;-55
2022/09/28 09:55:45;;;;;;;3.67;1.48;;;;;;;10.91;100.00;99635.25;5069187;28;20089;-56
2022/09/28 09:58:38;;;;;;;4.90;1.55;;;;;;;10.94;100.00;99634.63;5038149;28;20048;-54
2022/09/28 10:01:37;;;;;;;2.00;1.40;;;;;;;10.94;100.00;99629.19;5064227;28;20059;-55
2022/09/28 10:04:23;;;;;;;3.47;1.90;;;;;;;10.98;100.00;99631.00;5073224;28;20036;-51
2022/09/28 10:07:00;;;;;;;4.25;1.40;;;;;;;11.02;100.00;99626.59;5068121;28;20469;-53
2022/09/28 10:09:33;;;;;;;4.45;1.63;;;;;;;11.04;100.00;99629.81;5055483;28;20106;-51
2022/09/28 10:12:21;;;;;;;4.63;1.70;;;;;;;11.06;100.00;99634.97;5041374;28;20048;-52
2022/09/28 10:14:49;;;;;;;3.33;1.95;;;;;;;11.07;100.00;99629.22;5051878;28;20049;-53
2022/09/28 10:17:25;;;;;;;3.90;1.70;;;;;;;11.12;100.00;99627.53;5060024;28;20090;-58
2022/09/28 10:20:13;;;;;;;5.78;1.80;;;;;;;11.18;100.00;99624.38;5064928;28;20052;-55
2022/09/28 10:23:00;;;;;;;5.75;2.20;;;;;;;11.25;100.00;99626.72;5065288;28;20392;-54
2022/09/28 10:25:32;;;;;;;4.43;2.10;;;;;;;11.26;100.00;99617.44;5052511;28;20048;-51
2022/09/28 10:28:01;;;;;;;6.20;1.67;;;;;;;11.25;100.00;99629.44;5049758;28;20402;-54
2022/09/28 10:30:34;;;;;;;5.68;2.25;;;;;;;11.29;100.00;99619.56;5047380;28;20377;-52
2022/09/28 10:33:01;;;;;;;5.88;2.17;;;;;;;11.33;100.00;99620.56;4345600;28;10000879;-53
2022/09/28 10:35:41;;;;;;;9.02;2.00;;;;;;;11.39;100.00;99622.06;5064533;28;20037;-57
2022/09/28 10:38:11;;;;;;;6.55;2.05;;;;;;;11.44;100.00;99627.41;5061922;28;20048;-55
2022/09/28 10:40:53;;;;;;;2.40;1.33;;;;;;;11.48;100.00;99624.91;5063580;28;20502;-53
2022/09/28 10:44:08;;;;;;;3.30;1.50;;;;;;;11.52;100.00;99626.72;5054278;28;20049;-54
2022/09/28 10:46:59;;;;;;;4.50;1.45;;;;;;;11.57;99.03;99623.09;5024258;28;20041;-52
2022/09/28 10:49:37;;;;;;;4.72;1.70;;;;;;;11.59;100.00;99628.22;5065446;28;20072;-53
2022/09/28 10:52:30;;;;;;;3.50;1.52;;;;;;;11.62;99.75;99627.63;5060397;28;20071;-55
2022/09/28 10:54:59;;;;;;;4.70;1.88;;;;;;;11.63;100.00;99623.78;5055075;28;20150;-54
2022/09/28 10:57:34;;;;;;;3.30;2.00;;;;;;;11.58;98.30;99629.34;5072091;28;20636;-56
2022/09/28 11:00:29;;;;;;;3.88;1.48;;;;;;;11.58;96.69;99621.97;5067889;28;20402;-55
2022/09/28 11:03:24;;;;;;;3.28;1.83;;;;;;;11.64;96.26;99622.66;5057231;28;20048;-54
2022/09/28 11:05:56;;;;;;;2.65;1.50;;;;;;;11.71;96.40;99625.78;5056133;28;20049;-53
2022/09/28 11:08:33;;;;;;;2.35;1.52;;;;;;;11.71;96.50;99620.34;5070245;28;20105;-53
2022/09/28 11:11:13;;;;;;;6.47;1.80;;;;;;;11.69;97.77;99617.13;5060932;28;20037;-56
2022/09/28 11:13:55;;;;;;;3.30;1.60;;;;;;;11.68;98.30;99624.47;5057831;28;20048;-53
2022/09/28 11:16:28;;;;;;;2.63;1.27;;;;;;;11.67;96.85;99614.69;5073501;28;20061;-52
2022/09/28 11:19:04;;;;;;;3.53;1.40;;;;;;;11.67;97.85;99624.81;5073207;28;20041;-52
2022/09/28 11:21:41;;;;;;;2.95;1.60;;;;;;;11.72;96.71;99622.75;5056977;28;20037;-55
2022/09/28 11:24:24;;;;;;;2.60;1.60;;;;;;;11.81;96.85;99624.75;5061473;28;20067;-53
2022/09/28 11:26:56;;;;;;;;;;;;;;;11.91;96.57;99613.69;5075044;28;20048;-53
2022/09/28 11:29:45;;;;;;;6.45;1.88;;;;;;;11.92;95.16;99616.09;5055151;28;19928;-57
2022/09/28 11:32:42;;;;;;;4.82;1.58;;;;;;;11.96;96.36;99612.75;5072624;28;20040;-55
2022/09/28 11:35:47;;;;;;;3.10;1.55;;;;;;;12.01;92.12;99618.09;5071448;28;20040;-52
2022/09/28 11:38:15;;;;;;;3.90;1.35;;;;;;;12.08;92.40;99610.31;5048868;28;20045;-61
2022/09/28 11:41:44;;;;;;;2.65;1.10;;;;;;;12.06;90.03;99620.72;5061145;28;20097;-52
2022/09/28 11:44:14;;;;;;;;;;;;;;;12.04;91.12;99618.28;5067300;28;20451;-54
2022/09/28 11:47:01;;;;;;;3.90;1.55;;;;;;;12.01;92.88;99615.38;5074504;28;19921;-52
2022/09/28 11:49:33;;;;;;;3.75;1.52;;;;;;;12.01;93.62;99615.38;5042731;28;20036;-51
2022/09/28 11:52:17;;;;;;;3.17;1.52;;;;;;;12.04;93.38;99612.81;5073636;28;20040;-52
2022/09/28 11:55:21;;;;;;;4.13;1.45;;;;;;;12.05;93.28;99616.34;5055982;28;20055;-52
2022/09/28 11:58:23;;;;;;;2.40;1.05;;;;;;;12.08;92.86;99623.97;5049518;28;20121;-56
2022/09/28 12:01:26;;;;;;;1.85;1.25;;;;;;;12.08;92.54;99619.28;5056864;28;20052;-53
2022/09/28 12:04:35;;;;;;;4.22;1.30;;;;;;;12.15;92.59;99613.41;5049467;28;20060;-57
2022/09/28 12:07:19;;;;;;;3.55;1.35;;;;;;;12.19;93.89;99619.06;5052589;28;20044;-54
2022/09/28 12:09:54;;;;;;;3.78;1.25;;;;;;;12.27;93.86;99615.59;5057569;28;20040;-54
2022/09/28 12:12:57;;;;;;;3.97;1.40;;;;;;;12.26;93.42;99614.78;5057648;28;20409;-56
2022/09/28 12:15:29;;;;;;;6.93;1.60;;;;;;;12.35;91.49;99618.38;5066390;28;20095;-51
2022/09/28 12:18:39;;;;;;;3.25;1.10;;;;;;;12.31;89.65;99611.94;5072473;28;20055;-55
2022/09/28 12:21:21;;;;;;;3.55;1.75;;;;;;;12.40;90.18;99619.41;5074007;28;20041;-52
2022/09/28 12:23:50;;;;;;;2.55;1.42;;;;;;;12.41;89.17;99610.91;5072958;28;20035;-51
2022/09/28 12:26:44;;;;;;;2.28;1.35;;;;;;;12.45;88.14;99616.53;5066283;28;20517;-51
2022/09/28 12:29:22;;;;;;;4.50;1.25;;;;;;;12.52;88.38;99611.44;5061651;28;20494;-54
2022/09/28 12:31:55;;;;;;;3.45;1.15;;;;;;;12.58;83.27;99610.22;5074414;28;20049;-51
2022/09/28 12:34:23;;;;;;;3.38;1.00;;;;;;;12.60;82.12;99612.63;5071912;28;20044;-51